Time;durP1;ratioP1;P1;durP2;ratioP2;P2;SDS_P1;SDS_P2;PMS_P1;PMS_P2;Temp;Humidity;BMP_temperature;BMP_pressure;BME280_temperature;BME280_humidity;BME280_pressure;Samples;Min_cycle;Max_cycle;Signal;HPM_P1;HPM_P2
2024/03/11 00:02:27;;;;;;;2.20;2.00;;;;;;;7.42;100.00;153266.00;5039327;28;20463;-85
2024/03/11 00:04:54;;;;;;;2.60;2.17;;;;;;;7.41;100.00;153262.16;5008726;28;20535;-84
2024/03/11 00:07:21;;;;;;;2.33;1.80;;;;;;;7.42;100.00;153264.69;5018861;28;20520;-84
2024/03/11 00:09:48;;;;;;;4.20;2.00;;;;;;;7.42;100.00;153264.69;5026893;28;20469;-84
2024/03/11 00:12:17;;;;;;;2.27;2.03;;;;;;;7.41;100.00;153262.16;5035277;28;20486;-84
2024/03/11 00:14:47;;;;;;;3.53;2.97;;;;;;;7.39;100.00;153258.25;5041249;28;21052;-84
2024/03/11 00:17:15;;;;;;;3.23;2.27;;;;;;;7.36;100.00;153251.78;5020879;28;20841;-85
2024/03/11 00:19:42;;;;;;;3.00;2.40;;;;;;;7.39;100.00;153257.00;5037492;28;20450;-84
2024/03/11 00:22:08;;;;;;;3.70;2.93;;;;;;;7.36;100.00;153251.78;5005771;28;20471;-84
2024/03/11 00:24:35;;;;;;;3.40;2.40;;;;;;;7.35;100.00;153249.25;5039232;28;20450;-84
2024/03/11 00:27:03;;;;;;;3.63;2.67;;;;;;;7.35;100.00;153249.25;5022477;28;20455;-84
2024/03/11 00:29:31;;;;;;;2.17;1.70;;;;;;;7.36;100.00;153251.78;5042776;28;20457;-84
2024/03/11 00:31:58;;;;;;;2.80;2.40;;;;;;;7.39;100.00;153257.00;5032514;28;20601;-84
2024/03/11 00:34:27;;;;;;;3.60;2.27;;;;;;;7.35;100.00;153249.25;5009770;28;20473;-84
2024/03/11 00:36:53;;;;;;;2.90;2.57;;;;;;;7.35;100.00;153247.94;5046167;28;20934;-84
2024/03/11 00:39:20;;;;;;;2.97;2.50;;;;;;;7.35;100.00;153249.25;5037519;28;20470;-84
2024/03/11 00:41:47;;;;;;;2.70;2.10;;;;;;;7.34;100.00;153246.63;5040362;28;20234;-84
2024/03/11 00:44:13;;;;;;;2.80;2.43;;;;;;;7.32;100.00;153241.47;5023745;28;20439;-84
2024/03/11 00:46:40;;;;;;;3.83;2.70;;;;;;;7.35;100.00;153247.94;5032649;28;21222;-84
2024/03/11 00:49:07;;;;;;;2.97;2.47;;;;;;;7.35;100.00;153247.94;5025096;28;20487;-84
2024/03/11 00:51:35;;;;;;;2.47;2.03;;;;;;;7.32;100.00;153241.47;5021661;28;20566;-84
2024/03/11 00:54:02;;;;;;;2.80;2.40;;;;;;;7.34;100.00;153246.63;5021442;28;20467;-84
2024/03/11 00:56:29;;;;;;;3.10;2.43;;;;;;;7.31;100.00;153238.88;5045924;28;20554;-84
2024/03/11 00:58:57;;;;;;;3.30;2.50;;;;;;;7.29;100.00;153233.72;5017031;28;20495;-84
2024/03/11 01:01:25;;;;;;;2.90;2.57;;;;;;;7.30;100.00;153236.34;5020811;28;20453;-84
2024/03/11 01:03:53;;;;;;;2.93;2.50;;;;;;;7.30;100.00;153235.03;5021448;28;20440;-84
2024/03/11 01:06:20;;;;;;;3.00;2.70;;;;;;;7.31;100.00;153238.88;5016674;28;20467;-84
2024/03/11 01:08:48;;;;;;;2.90;2.43;;;;;;;7.29;100.00;153232.44;5039114;28;20567;-84
2024/03/11 01:11:14;;;;;;;3.43;2.80;;;;;;;7.29;100.00;153233.72;5041999;28;20455;-84
2024/03/11 01:13:41;;;;;;;3.10;2.57;;;;;;;7.27;100.00;153228.56;5018908;28;20569;-84
2024/03/11 01:16:08;;;;;;;4.57;2.80;;;;;;;7.25;100.00;153223.38;5026685;28;20458;-84
2024/03/11 01:18:35;;;;;;;3.47;2.30;;;;;;;7.24;100.00;153220.81;5039842;28;20549;-84
2024/03/11 01:21:02;;;;;;;3.27;2.80;;;;;;;7.24;100.00;153220.81;5028991;28;20969;-84
2024/03/11 01:23:28;;;;;;;3.30;2.57;;;;;;;7.23;100.00;153218.22;5023357;28;20447;-84
2024/03/11 01:25:57;;;;;;;3.60;2.80;;;;;;;7.24;100.00;153219.53;5035721;28;20451;-84
2024/03/11 01:28:23;;;;;;;3.30;2.50;;;;;;;7.21;100.00;153213.06;5005470;28;20440;-84
2024/03/11 01:30:50;;;;;;;3.87;3.00;;;;;;;7.18;100.00;153204.00;5033716;28;20454;-84
2024/03/11 01:33:18;;;;;;;3.60;2.97;;;;;;;7.15;100.00;153197.56;5038619;28;20459;-84
2024/03/11 01:35:45;;;;;;;2.50;2.20;;;;;;;7.14;100.00;153195.00;5026149;28;20447;-84
2024/03/11 01:38:12;;;;;;;3.07;2.63;;;;;;;7.14;100.00;153195.00;5015143;28;20452;-84
2024/03/11 01:40:39;;;;;;;2.90;2.57;;;;;;;7.09;100.00;153180.81;5018118;28;20955;-84
2024/03/11 01:43:07;;;;;;;2.70;2.37;;;;;;;7.08;100.00;153178.19;4999596;28;21044;-84
2024/03/11 01:45:35;;;;;;;2.63;2.07;;;;;;;7.07;100.00;153175.66;5040818;28;20555;-84
2024/03/11 01:48:01;;;;;;;3.53;2.80;;;;;;;7.03;100.00;153166.59;5038159;28;20929;-84
2024/03/11 01:50:28;;;;;;;3.27;2.50;;;;;;;7.01;100.00;153160.13;5014843;28;20435;-84
2024/03/11 01:52:56;;;;;;;3.27;2.80;;;;;;;6.99;100.00;153155.00;5024233;28;20451;-83
2024/03/11 01:55:25;;;;;;;3.00;2.60;;;;;;;6.96;100.00;153148.53;5015094;28;20472;-84
2024/03/11 01:57:54;;;;;;;3.40;2.80;;;;;;;6.93;100.00;153140.78;5035212;28;20553;-84
2024/03/11 02:00:22;;;;;;;2.50;2.23;;;;;;;6.91;100.00;153135.59;5035323;28;20437;-84
2024/03/11 02:02:53;;;;;;;2.83;2.27;;;;;;;6.90;100.00;153131.72;5044543;28;20514;-83
2024/03/11 02:05:20;;;;;;;3.60;2.63;;;;;;;6.86;100.00;153121.44;5004973;28;20471;-84
2024/03/11 02:07:55;;;;;;;2.90;2.57;;;;;;;6.85;100.00;153120.13;5023517;28;21065;-83
2024/03/11 02:10:23;;;;;;;3.47;2.17;;;;;;;6.84;100.00;153117.53;5037863;28;20449;-84
2024/03/11 02:12:50;;;;;;;3.60;2.80;;;;;;;6.84;100.00;153117.53;5018253;28;20460;-83
2024/03/11 02:15:17;;;;;;;3.10;2.30;;;;;;;6.84;100.00;153117.53;5037019;28;20474;-83
2024/03/11 02:17:46;;;;;;;2.10;1.90;;;;;;;6.80;100.00;153107.22;5011684;28;20453;-83
2024/03/11 02:20:16;;;;;;;3.30;2.20;;;;;;;6.81;100.00;153109.78;5034707;28;20455;-83
2024/03/11 02:22:45;;;;;;;3.23;2.10;;;;;;;6.72;100.00;153087.81;5034936;28;20539;-84
2024/03/11 02:25:14;;;;;;;2.97;2.30;;;;;;;6.68;100.00;153076.22;5038947;28;20950;-84
2024/03/11 02:27:41;;;;;;;3.07;2.20;;;;;;;6.66;100.00;153072.38;5020386;28;20553;-83
2024/03/11 02:30:08;;;;;;;2.37;2.10;;;;;;;6.63;100.00;153063.31;5020966;28;20550;-83
2024/03/11 02:32:35;;;;;;;2.37;2.00;;;;;;;6.61;100.00;153059.47;5024061;28;20431;-84
2024/03/11 02:35:02;;;;;;;2.80;2.10;;;;;;;6.62;100.00;153060.72;5025475;28;20466;-83
2024/03/11 02:37:28;;;;;;;2.10;1.83;;;;;;;6.59;100.00;153054.28;5022864;28;20529;-83
2024/03/11 02:39:55;;;;;;;2.67;2.20;;;;;;;6.58;100.00;153050.41;5047826;28;20443;-83
2024/03/11 02:42:25;;;;;;;2.40;1.90;;;;;;;6.57;100.00;153049.13;5046544;28;20468;-83
2024/03/11 02:45:06;;;;;;;2.30;2.07;;;;;;;6.57;100.00;153049.13;5040602;28;20533;-83
2024/03/11 02:47:35;;;;;;;2.20;1.77;;;;;;;6.56;100.00;153045.25;5027579;28;20821;-83
2024/03/11 02:50:05;;;;;;;2.53;1.80;;;;;;;6.53;100.00;153037.50;5009571;28;20430;-83
2024/03/11 02:52:32;;;;;;;2.10;1.90;;;;;;;6.49;100.00;153028.47;5032246;28;20435;-83
2024/03/11 02:54:59;;;;;;;2.57;2.17;;;;;;;6.47;100.00;153022.00;5020621;28;20828;-83
2024/03/11 02:57:28;;;;;;;2.20;1.80;;;;;;;6.45;100.00;153018.16;5036514;28;20455;-82
2024/03/11 02:59:54;;;;;;;2.33;2.00;;;;;;;6.45;100.00;153016.88;5046530;28;20523;-83
2024/03/11 03:02:22;;;;;;;1.93;1.60;;;;;;;6.44;100.00;153014.28;5043851;28;20520;-82
2024/03/11 03:04:49;;;;;;;2.60;1.80;;;;;;;6.42;100.00;153009.13;5029384;28;20450;-82
2024/03/11 03:07:17;;;;;;;2.00;1.43;;;;;;;6.38;100.00;152998.81;5042356;28;20450;-83
2024/03/11 03:09:45;;;;;;;2.10;1.60;;;;;;;6.36;100.00;152994.91;5021847;28;20757;-82
2024/03/11 03:12:12;;;;;;;3.70;1.80;;;;;;;6.35;100.00;152992.38;5036425;28;20553;-82
2024/03/11 03:14:41;;;;;;;2.73;2.10;;;;;;;6.32;100.00;152983.31;5041880;28;20506;-82
2024/03/11 03:17:07;;;;;;;2.23;1.70;;;;;;;6.30;100.00;152979.41;5038385;28;20452;-82
2024/03/11 03:19:34;;;;;;;2.07;1.77;;;;;;;6.26;100.00;152967.81;5022271;28;20553;-82
2024/03/11 03:22:01;;;;;;;2.03;1.60;;;;;;;6.25;100.00;152965.28;5040696;28;20562;-82
2024/03/11 03:24:27;;;;;;;2.00;1.50;;;;;;;6.21;100.00;152954.94;5030232;28;20504;-82
2024/03/11 03:26:54;;;;;;;2.03;1.70;;;;;;;6.17;100.00;152945.88;5038211;28;20543;-82
2024/03/11 03:29:20;;;;;;;1.73;1.40;;;;;;;6.12;100.00;152934.28;5041330;28;20461;-82
2024/03/11 03:31:48;;;;;;;2.00;1.50;;;;;;;6.08;100.00;152922.69;5035881;28;20462;-82
2024/03/11 03:34:15;;;;;;;2.17;1.80;;;;;;;6.03;100.00;152909.78;5036538;28;20530;-82
2024/03/11 03:36:41;;;;;;;4.13;2.20;;;;;;;6.01;100.00;152905.88;5040681;28;20439;-82
2024/03/11 03:39:08;;;;;;;2.73;1.67;;;;;;;6.01;100.00;152905.88;5047561;28;20458;-82
2024/03/11 03:41:35;;;;;;;2.03;1.67;;;;;;;5.97;100.00;152895.59;5024023;28;20459;-82
2024/03/11 03:44:02;;;;;;;1.97;1.70;;;;;;;5.93;100.00;152885.25;5042297;28;20697;-82
2024/03/11 03:46:29;;;;;;;1.80;1.40;;;;;;;5.86;100.00;152867.22;5024325;28;20463;-82
2024/03/11 03:48:58;;;;;;;1.73;1.40;;;;;;;5.84;100.00;152862.00;5015847;28;20478;-82
2024/03/11 03:51:24;;;;;;;1.97;1.73;;;;;;;5.82;100.00;152855.56;5038795;28;20455;-82
2024/03/11 03:53:51;;;;;;;2.00;1.60;;;;;;;5.83;100.00;152859.41;5029620;28;20443;-82
2024/03/11 03:56:17;;;;;;;2.47;1.70;;;;;;;5.80;100.00;152851.66;5040874;28;20479;-82
2024/03/11 03:58:44;;;;;;;1.87;1.40;;;;;;;5.78;100.00;152846.53;5023624;28;20765;-82
2024/03/11 04:01:10;;;;;;;2.20;1.73;;;;;;;5.75;100.00;152837.47;5020625;28;20851;-82
2024/03/11 04:03:37;;;;;;;2.93;1.80;;;;;;;5.74;100.00;152834.94;5035903;28;20497;-82
2024/03/11 04:06:06;;;;;;;1.60;1.50;;;;;;;5.72;100.00;152829.78;5023694;28;20513;-74
2024/03/11 04:08:32;;;;;;;2.13;1.60;;;;;;;5.70;100.00;152825.88;5038869;28;20871;-74
2024/03/11 04:10:59;;;;;;;2.50;1.90;;;;;;;5.66;100.00;152815.59;5015258;28;20493;-74
2024/03/11 04:13:26;;;;;;;1.63;1.53;;;;;;;5.63;100.00;152807.84;5025298;28;20435;-75
2024/03/11 04:15:55;;;;;;;1.80;1.37;;;;;;;5.60;100.00;152800.09;5042512;28;20471;-74
2024/03/11 04:18:23;;;;;;;1.93;1.67;;;;;;;5.56;100.00;152788.50;5023201;28;20442;-75
2024/03/11 04:20:50;;;;;;;3.23;1.90;;;;;;;5.52;100.00;152779.47;5041540;28;20483;-74
2024/03/11 04:23:18;;;;;;;2.90;1.47;;;;;;;5.47;100.00;152766.59;5015004;28;20516;-75
2024/03/11 04:25:45;;;;;;;2.80;2.40;;;;;;;5.43;100.00;152756.25;5022304;28;20444;-74
2024/03/11 04:28:13;;;;;;;2.20;1.70;;;;;;;5.41;100.00;152751.09;5036814;28;20467;-74
2024/03/11 04:30:40;;;;;;;2.07;1.67;;;;;;;5.33;100.00;152730.47;5023609;28;20463;-74
2024/03/11 04:33:07;;;;;;;3.20;2.07;;;;;;;5.36;100.00;152738.22;5022267;28;20439;-75
2024/03/11 04:35:35;;;;;;;2.20;1.80;;;;;;;5.35;100.00;152735.63;5023776;28;20474;-74
2024/03/11 04:38:03;;;;;;;3.50;1.80;;;;;;;5.30;100.00;152722.72;5021552;28;20455;-74
2024/03/11 04:40:32;;;;;;;1.80;1.67;;;;;;;5.29;100.00;152720.19;5035974;28;20487;-74
2024/03/11 04:42:59;;;;;;;2.27;1.60;;;;;;;5.26;100.00;152713.75;5039745;28;20476;-74
2024/03/11 04:45:27;;;;;;;2.40;2.07;;;;;;;5.22;100.00;152702.09;5022888;28;20431;-76
2024/03/11 04:47:56;;;;;;;2.73;1.93;;;;;;;5.21;100.00;152699.56;5023370;28;20778;-75
2024/03/11 04:50:26;;;;;;;2.30;1.97;;;;;;;5.19;100.00;152694.41;5008365;28;20440;-74
2024/03/11 04:52:55;;;;;;;3.00;2.27;;;;;;;5.18;100.00;152693.09;5040829;28;20957;-75
2024/03/11 04:55:21;;;;;;;2.70;1.80;;;;;;;5.16;100.00;152687.97;5021037;28;20475;-74
2024/03/11 04:57:49;;;;;;;2.67;2.13;;;;;;;5.14;100.00;152681.47;5042353;28;20919;-74
2024/03/11 05:00:17;;;;;;;2.43;1.90;;;;;;;5.12;100.00;152676.31;5020439;28;21025;-74
2024/03/11 05:02:44;;;;;;;2.07;1.87;;;;;;;5.10;100.00;152672.47;5020970;28;20486;-74
2024/03/11 05:05:11;;;;;;;2.40;1.70;;;;;;;5.11;100.00;152673.78;5026120;28;20455;-74
2024/03/11 05:07:38;;;;;;;3.40;2.43;;;;;;;5.08;100.00;152667.34;5024896;28;20939;-74
2024/03/11 05:10:07;;;;;;;2.43;2.00;;;;;;;5.07;100.00;152663.44;5033640;28;20558;-74
2024/03/11 05:12:33;;;;;;;2.77;2.37;;;;;;;5.05;100.00;152658.31;5023122;28;20545;-75
2024/03/11 05:15:01;;;;;;;2.33;1.87;;;;;;;5.03;100.00;152653.16;5038719;28;20487;-75
2024/03/11 05:17:28;;;;;;;2.77;2.40;;;;;;;5.03;100.00;152653.16;5023310;28;20464;-75
2024/03/11 05:19:54;;;;;;;3.03;2.07;;;;;;;4.99;100.00;152642.81;5042262;28;20512;-76
2024/03/11 05:22:23;;;;;;;3.57;1.83;;;;;;;4.95;100.00;152632.53;5041352;28;20467;-74
2024/03/11 05:24:50;;;;;;;2.17;1.90;;;;;;;4.93;100.00;152629.94;5025154;28;20452;-74
2024/03/11 05:27:17;;;;;;;3.00;2.00;;;;;;;4.91;100.00;152623.50;5003386;28;20467;-74
2024/03/11 05:29:44;;;;;;;2.80;2.07;;;;;;;4.92;100.00;152627.34;5039138;28;20455;-74
2024/03/11 05:32:12;;;;;;;2.10;1.60;;;;;;;4.90;100.00;152620.91;5023490;28;20470;-74
2024/03/11 05:34:38;;;;;;;2.53;1.97;;;;;;;4.90;100.00;152622.19;5040540;28;20442;-76
2024/03/11 05:37:06;;;;;;;2.17;1.73;;;;;;;4.90;100.00;152620.91;5041856;28;20450;-74
2024/03/11 05:39:33;;;;;;;2.00;1.80;;;;;;;4.88;100.00;152615.75;5020310;28;20462;-74
2024/03/11 05:41:59;;;;;;;2.47;1.67;;;;;;;4.85;100.00;152609.31;5036873;28;20530;-75
2024/03/11 05:44:26;;;;;;;2.70;2.20;;;;;;;4.85;100.00;152609.31;5045590;28;20451;-75
2024/03/11 05:46:52;;;;;;;2.33;1.87;;;;;;;4.84;100.00;152606.72;5042100;28;20462;-76
2024/03/11 05:49:21;;;;;;;2.20;1.80;;;;;;;4.83;100.00;152604.16;5040600;28;20978;-76
2024/03/11 05:51:48;;;;;;;2.57;1.77;;;;;;;4.84;100.00;152606.72;5017971;28;20467;-75
2024/03/11 05:54:17;;;;;;;2.40;1.90;;;;;;;4.82;100.00;152601.56;5020358;28;20580;-75
2024/03/11 05:56:53;;;;;;;3.03;2.00;;;;;;;4.83;100.00;152604.16;5042124;28;20486;-73
2024/03/11 05:59:21;;;;;;;3.47;2.00;;;;;;;4.83;100.00;152602.88;5044126;28;20525;-75
2024/03/11 06:01:48;;;;;;;2.80;2.20;;;;;;;4.79;100.00;152592.59;5036832;28;20474;-75
2024/03/11 06:04:15;;;;;;;1.93;1.73;;;;;;;4.81;100.00;152599.03;5037690;28;20505;-75
2024/03/11 06:06:44;;;;;;;2.60;1.97;;;;;;;4.83;100.00;152602.88;5013898;28;20556;-74
2024/03/11 06:09:14;;;;;;;2.80;2.50;;;;;;;4.84;100.00;152606.72;5023162;28;20900;-75
2024/03/11 06:11:41;;;;;;;2.73;2.00;;;;;;;4.86;100.00;152610.63;5018531;28;21557;-75
2024/03/11 06:14:09;;;;;;;2.40;1.80;;;;;;;4.89;100.00;152619.66;5018245;28;20843;-74
2024/03/11 06:16:36;;;;;;;2.57;2.30;;;;;;;4.90;100.00;152622.19;5037540;28;20483;-74
2024/03/11 06:19:02;;;;;;;2.33;1.90;;;;;;;4.93;100.00;152628.63;5038020;28;20862;-74
2024/03/11 06:21:30;;;;;;;3.93;2.70;;;;;;;4.97;100.00;152638.97;5019262;28;20458;-74
2024/03/11 06:23:59;;;;;;;2.67;2.40;;;;;;;5.07;100.00;152664.75;5018515;28;20463;-74
2024/03/11 06:26:26;;;;;;;4.87;3.47;;;;;;;5.22;100.00;152703.41;5024278;28;20455;-74
2024/03/11 06:28:58;;;;;;;2.77;2.27;;;;;;;5.42;100.00;152755.00;5018497;28;20477;-74
2024/03/11 06:31:25;;;;;;;2.80;2.30;;;;;;;5.66;100.00;152815.59;5018856;28;20451;-74
2024/03/11 06:33:52;;;;;;;3.33;2.17;;;;;;;5.90;100.00;152877.56;5020040;28;20891;-74
2024/03/11 06:36:19;;;;;;;3.73;2.07;;;;;;;6.11;100.00;152931.72;4999963;28;20481;-74
2024/03/11 06:38:48;;;;;;;2.30;2.10;;;;;;;6.29;100.00;152975.56;5038123;28;20969;-74
2024/03/11 06:41:17;;;;;;;2.30;1.90;;;;;;;6.49;100.00;153028.47;5018932;28;20831;-73
2024/03/11 06:43:44;;;;;;;2.90;2.53;;;;;;;6.65;100.00;153069.78;5031246;28;20490;-74
2024/03/11 06:46:11;;;;;;;2.70;2.40;;;;;;;6.84;100.00;153117.53;5014742;28;20843;-74
2024/03/11 06:48:37;;;;;;;3.30;2.00;;;;;;;7.03;100.00;153165.28;4999184;28;20451;-74
2024/03/11 06:51:05;;;;;;;1.90;1.47;;;;;;;7.22;100.00;153215.66;5016376;28;20463;-74
2024/03/11 06:53:32;;;;;;;2.43;1.50;;;;;;;7.34;100.00;153246.63;5035641;28;20442;-74
2024/03/11 06:56:00;;;;;;;2.60;1.77;;;;;;;7.50;100.00;153285.38;5016738;28;20992;-74
2024/03/11 06:58:28;;;;;;;1.77;1.53;;;;;;;7.67;100.00;153330.59;5037672;28;20459;-74
2024/03/11 07:00:58;;;;;;;1.73;1.63;;;;;;;7.87;100.00;153380.97;5017704;28;20812;-75
2024/03/11 07:03:28;;;;;;;2.50;1.73;;;;;;;7.99;100.00;153412.00;5035085;28;20569;-75
2024/03/11 07:05:58;;;;;;;1.60;1.30;;;;;;;8.18;100.00;153459.81;5034580;28;20489;-75
2024/03/11 07:08:25;;;;;;;1.70;1.30;;;;;;;8.34;100.00;153501.22;5000203;28;20444;-75
2024/03/11 07:10:51;;;;;;;1.30;1.10;;;;;;;8.51;100.00;153546.44;5035957;28;20514;-74
2024/03/11 07:13:18;;;;;;;6.33;1.40;;;;;;;8.73;99.53;153600.72;5035335;28;21056;-75
2024/03/11 07:15:46;;;;;;;1.53;1.20;;;;;;;8.95;98.94;153657.59;5034590;28;21122;-75
2024/03/11 07:18:13;;;;;;;1.97;1.37;;;;;;;9.17;98.07;153715.81;5037790;28;20438;-75
2024/03/11 07:20:40;;;;;;;1.20;0.90;;;;;;;9.37;97.30;153766.22;5040039;28;20573;-74
2024/03/11 07:23:08;;;;;;;1.30;0.80;;;;;;;9.53;95.67;153807.63;5038901;28;20953;-75
2024/03/11 07:25:35;;;;;;;2.10;1.60;;;;;;;9.66;94.67;153841.25;5025124;28;20530;-75
2024/03/11 07:28:01;;;;;;;1.87;1.40;;;;;;;9.78;93.11;153872.34;5040104;28;20458;-75
2024/03/11 07:30:29;;;;;;;2.53;1.03;;;;;;;9.95;92.29;153913.75;5021414;28;20909;-75
2024/03/11 07:33:07;;;;;;;1.10;0.90;;;;;;;10.11;91.67;153956.44;5039106;28;20525;-75
2024/03/11 07:35:35;;;;;;;2.30;1.20;;;;;;;10.30;90.33;154004.38;5037632;28;20467;-75
2024/03/11 07:38:01;;;;;;;4.90;1.60;;;;;;;10.43;88.68;154038.09;5036444;28;20469;-75
2024/03/11 07:40:28;;;;;;;2.03;1.27;;;;;;;10.58;88.13;154075.59;5021365;28;20473;-75
2024/03/11 07:42:57;;;;;;;3.17;1.00;;;;;;;10.77;87.42;154124.81;5038749;28;20584;-75
2024/03/11 07:45:24;;;;;;;1.60;0.90;;;;;;;10.97;86.30;154176.59;5039880;28;20545;-76
2024/03/11 07:47:53;;;;;;;2.03;1.10;;;;;;;11.19;85.25;154232.31;5038006;28;20467;-76
2024/03/11 07:50:21;;;;;;;1.73;0.97;;;;;;;11.48;84.18;154307.47;5033264;28;20445;-76
2024/03/11 07:52:48;;;;;;;1.50;0.80;;;;;;;11.67;81.99;154355.41;5038993;28;20489;-76
2024/03/11 07:55:14;;;;;;;1.70;1.17;;;;;;;11.88;81.07;154409.88;5024423;28;20525;-76
2024/03/11 07:57:41;;;;;;;1.80;1.00;;;;;;;12.01;79.41;154444.91;5040427;28;20447;-76
2024/03/11 08:00:10;;;;;;;1.90;1.10;;;;;;;12.15;78.08;154479.91;5040520;28;20471;-75
2024/03/11 08:02:37;;;;;;;1.60;0.80;;;;;;;12.28;76.57;154512.31;5036968;28;20455;-76
2024/03/11 08:05:04;;;;;;;1.33;0.80;;;;;;;12.44;75.86;154553.78;5037554;28;20550;-76
2024/03/11 08:07:32;;;;;;;1.10;0.73;;;;;;;12.62;75.49;154601.78;5037301;28;20451;-76
2024/03/11 08:10:00;;;;;;;1.77;0.97;;;;;;;12.69;73.11;154618.63;5037422;28;20455;-76
2024/03/11 08:12:27;;;;;;;1.20;0.70;;;;;;;12.80;73.02;154647.16;5037177;28;20490;-76
2024/03/11 08:14:54;;;;;;;1.20;0.60;;;;;;;12.94;74.35;154682.19;5039146;28;20510;-76
2024/03/11 08:17:21;;;;;;;1.20;0.67;;;;;;;12.90;74.25;154673.09;5037462;28;20483;-76
2024/03/11 08:19:48;;;;;;;1.20;0.80;;;;;;;12.92;73.55;154678.25;5038978;28;20814;-76
2024/03/11 08:22:16;;;;;;;1.37;0.80;;;;;;;13.01;74.22;154700.31;5007016;28;20529;-76
2024/03/11 08:24:44;;;;;;;1.13;0.67;;;;;;;12.97;73.60;154691.28;5036996;28;21019;-76
2024/03/11 08:27:10;;;;;;;1.03;0.70;;;;;;;12.89;72.47;154670.53;5036886;28;20456;-76
2024/03/11 08:29:37;;;;;;;1.50;0.83;;;;;;;12.83;73.47;154654.94;5018283;28;20443;-76
2024/03/11 08:32:05;;;;;;;1.00;0.60;;;;;;;12.72;73.74;154627.72;5027166;28;20981;-76
2024/03/11 08:34:32;;;;;;;1.07;0.70;;;;;;;12.58;74.59;154590.06;5033601;28;20561;-76
2024/03/11 08:36:58;;;;;;;1.57;0.70;;;;;;;12.43;75.08;154551.19;5034174;28;20702;-76
2024/03/11 08:39:26;;;;;;;1.03;0.70;;;;;;;12.35;75.32;154531.75;5004509;28;20455;-76
2024/03/11 08:41:54;;;;;;;2.10;1.10;;;;;;;12.25;74.60;154504.50;5039301;28;21017;-76
2024/03/11 08:44:21;;;;;;;1.20;0.90;;;;;;;12.21;75.16;154495.41;5036463;28;20973;-76
2024/03/11 08:46:47;;;;;;;1.40;0.73;;;;;;;12.20;75.82;154492.84;5036618;28;20578;-76
2024/03/11 08:49:15;;;;;;;1.17;0.63;;;;;;;12.11;74.73;154470.81;5038848;28;20454;-76
2024/03/11 08:51:41;;;;;;;1.20;0.80;;;;;;;12.04;75.23;154452.69;5038610;28;21052;-76
2024/03/11 08:54:09;;;;;;;1.40;0.90;;;;;;;11.98;77.79;154437.09;5036468;28;20451;-76
2024/03/11 08:56:36;;;;;;;1.50;0.90;;;;;;;11.91;77.61;154418.97;5037775;28;20981;-76
2024/03/11 08:59:10;;;;;;;1.30;0.53;;;;;;;11.92;76.24;154420.22;5038932;28;20456;-76
2024/03/11 09:01:40;;;;;;;2.13;0.90;;;;;;;11.89;76.50;154413.75;5035833;28;20462;-76
2024/03/11 09:04:10;;;;;;;2.30;1.03;;;;;;;11.93;75.53;154424.16;5040057;28;20799;-75
2024/03/11 09:06:38;;;;;;;1.10;0.70;;;;;;;11.91;74.56;154417.66;5039920;28;20575;-75
2024/03/11 09:09:05;;;;;;;2.73;0.63;;;;;;;11.82;77.62;154395.63;5033044;28;20932;-75
2024/03/11 09:11:32;;;;;;;2.73;0.70;;;;;;;11.74;77.18;154374.88;5040712;28;20459;-76
2024/03/11 09:13:59;;;;;;;1.30;0.70;;;;;;;11.76;78.64;154380.06;5018432;28;20456;-76
2024/03/11 09:16:28;;;;;;;1.47;0.60;;;;;;;11.79;78.78;154387.84;5020401;28;20529;-76
2024/03/11 09:18:54;;;;;;;1.20;0.70;;;;;;;11.72;79.69;154369.72;5037515;28;20447;-76
2024/03/11 09:21:22;;;;;;;1.60;0.80;;;;;;;11.67;78.96;154355.41;5016871;28;20463;-76
2024/03/11 09:23:49;;;;;;;1.40;0.83;;;;;;;11.67;75.14;154356.72;5018288;28;20871;-76
2024/03/11 09:26:17;;;;;;;1.60;0.70;;;;;;;11.82;78.69;154394.31;5037513;28;20448;-76
2024/03/11 09:28:46;;;;;;;1.60;1.10;;;;;;;11.78;79.71;154385.22;5028197;28;20455;-76
2024/03/11 09:31:13;;;;;;;1.27;0.70;;;;;;;11.75;78.99;154376.19;5040532;28;20447;-76
2024/03/11 09:33:41;;;;;;;1.57;0.83;;;;;;;11.75;76.53;154377.50;5037370;28;20451;-76
2024/03/11 09:36:08;;;;;;;1.37;0.77;;;;;;;11.74;77.75;154374.88;5018588;28;22425;-76
2024/03/11 09:38:35;;;;;;;1.10;0.60;;;;;;;11.76;78.96;154380.06;5038934;28;20458;-76
2024/03/11 09:41:06;;;;;;;1.33;0.77;;;;;;;11.73;80.75;154372.28;5036064;28;20554;-76
2024/03/11 09:43:33;;;;;;;1.20;0.80;;;;;;;11.65;81.59;154351.50;5035477;28;20478;-76
2024/03/11 09:45:59;;;;;;;1.40;0.83;;;;;;;11.60;81.76;154339.84;5038528;28;20467;-75
2024/03/11 09:48:26;;;;;;;1.27;0.80;;;;;;;11.54;78.33;154323.03;5019734;28;20461;-77
2024/03/11 09:50:56;;;;;;;1.10;0.60;;;;;;;11.61;80.63;154341.16;5035552;28;20550;-75
2024/03/11 09:53:24;;;;;;;1.13;0.70;;;;;;;11.62;82.37;154345.00;5034540;28;20958;-76
2024/03/11 09:55:50;;;;;;;1.13;0.60;;;;;;;11.61;80.30;154342.44;5036124;28;20536;-76
2024/03/11 09:58:18;;;;;;;1.00;0.63;;;;;;;11.64;84.13;154348.94;5000917;28;20474;-76
2024/03/11 10:00:55;;;;;;;2.63;0.70;;;;;;;11.56;84.60;154328.19;5021009;28;20454;-76
2024/03/11 10:03:24;;;;;;;1.20;0.70;;;;;;;11.56;82.37;154329.50;5033898;28;20813;-76
2024/03/11 10:05:56;;;;;;;1.40;0.80;;;;;;;11.62;81.93;154343.75;5037972;28;20462;-76
2024/03/11 10:08:25;;;;;;;1.00;0.60;;;;;;;11.67;84.92;154356.72;5036345;28;20439;-76
2024/03/11 10:11:11;;;;;;;1.00;0.63;;;;;;;11.58;83.11;154333.38;5020069;28;20968;-76
2024/03/11 10:13:38;;;;;;;1.00;0.40;;;;;;;11.60;81.42;154339.84;5037909;28;20450;-76
2024/03/11 10:16:14;;;;;;;1.10;0.70;;;;;;;11.60;80.99;154339.84;5038305;28;20822;-76
2024/03/11 10:18:48;;;;;;;2.33;0.90;;;;;;;11.62;79.96;154345.00;5037048;28;20780;-76
2024/03/11 10:21:19;;;;;;;0.90;0.50;;;;;;;11.61;80.17;154341.16;5035729;28;20454;-76
2024/03/11 10:23:45;;;;;;;0.90;0.53;;;;;;;11.60;78.06;154339.84;5035810;28;20513;-76
2024/03/11 10:26:17;;;;;;;1.20;0.63;;;;;;;11.69;80.64;154361.94;5035105;28;20451;-76
2024/03/11 10:28:44;;;;;;;1.87;0.70;;;;;;;11.74;80.86;154374.88;5018892;28;20974;-76
2024/03/11 10:31:22;;;;;;;1.30;0.60;;;;;;;11.79;82.47;154387.84;5037430;28;20916;-75
2024/03/11 10:33:51;;;;;;;1.20;0.67;;;;;;;11.83;81.38;154398.22;5002153;28;20455;-75
2024/03/11 10:36:20;;;;;;;1.30;0.70;;;;;;;11.87;75.22;154407.28;5016728;28;20458;-76
2024/03/11 10:38:48;;;;;;;4.07;1.47;;;;;;;12.02;75.02;154447.44;5034287;28;20462;-76
2024/03/11 10:41:20;;;;;;;1.00;0.60;;;;;;;12.14;73.27;154478.59;5023645;28;20458;-76
2024/03/11 10:43:48;;;;;;;1.93;0.70;;;;;;;12.32;72.29;154522.66;5035715;28;20486;-76
2024/03/11 10:46:20;;;;;;;1.10;0.70;;;;;;;12.40;74.69;154543.41;5017902;28;20846;-75
2024/03/11 10:48:47;;;;;;;2.87;0.70;;;;;;;12.43;75.24;154551.19;5035177;28;20529;-76
2024/03/11 10:51:21;;;;;;;1.40;1.07;;;;;;;12.41;74.60;154546.00;5036887;28;20999;-76
2024/03/11 10:53:52;;;;;;;1.10;0.60;;;;;;;12.34;73.40;154527.88;5035930;28;20477;-76
2024/03/11 10:56:24;;;;;;;1.20;0.80;;;;;;;12.36;70.03;154534.34;5039851;28;21108;-76
2024/03/11 10:58:55;;;;;;;1.30;0.90;;;;;;;12.42;70.13;154549.88;5038559;28;20968;-76
2024/03/11 11:01:31;;;;;;;1.43;0.60;;;;;;;12.48;73.64;154564.16;5019754;28;20475;-75
2024/03/11 11:04:00;;;;;;;1.20;0.70;;;;;;;12.48;75.59;154565.44;5027955;28;20450;-75
2024/03/11 11:06:29;;;;;;;1.50;0.73;;;;;;;12.43;72.17;154551.19;5020469;28;20881;-75
2024/03/11 11:08:56;;;;;;;1.80;0.70;;;;;;;12.41;70.95;154547.31;5039820;28;20455;-75
2024/03/11 11:11:23;;;;;;;0.90;0.47;;;;;;;12.41;72.69;154547.31;5038224;28;20460;-75
2024/03/11 11:13:55;;;;;;;1.50;0.73;;;;;;;12.32;73.05;154522.66;5039781;28;20471;-75
2024/03/11 11:16:25;;;;;;;1.23;0.80;;;;;;;12.31;73.10;154520.09;5039431;28;20451;-75
2024/03/11 11:18:53;;;;;;;1.20;0.60;;;;;;;12.29;77.64;154514.84;5026947;28;20826;-75
2024/03/11 11:21:23;;;;;;;1.40;0.70;;;;;;;12.25;76.25;154504.50;5037657;28;20458;-75
2024/03/11 11:23:51;;;;;;;1.50;0.90;;;;;;;12.14;68.76;154478.59;5021619;28;21080;-75
2024/03/11 11:26:42;;;;;;;1.37;0.70;;;;;;;12.28;72.03;154513.59;5038443;28;20977;-75
2024/03/11 11:29:09;;;;;;;1.80;1.00;;;;;;;12.29;70.62;154514.84;5038538;28;20448;-75